Time;durP1;ratioP1;P1;durP2;ratioP2;P2;SDS_P1;SDS_P2;PMS_P1;PMS_P2;Temp;Humidity;BMP_temperature;BMP_pressure;BME280_temperature;BME280_humidity;BME280_pressure;Samples;Min_cycle;Max_cycle;Signal;HPM_P1;HPM_P2
2022/01/30 00:00:39;;;;;;;0.00;0.00;;;;;;;;;;1714010;28;20237;-71
2022/01/30 00:01:31;;;;;;;0.00;0.00;;;;;;;;;;1718155;28;20235;-71
2022/01/30 00:02:22;;;;;;;0.10;0.10;;;;;;;;;;1719257;28;20208;-71
2022/01/30 00:03:15;;;;;;;0.00;0.00;;;;;;;;;;1719727;28;20204;-71
2022/01/30 00:04:06;;;;;;;0.00;0.00;;;;;;;;;;1719451;28;20305;-71
2022/01/30 00:04:58;;;;;;;0.00;0.00;;;;;;;;;;1719798;28;20200;-71
2022/01/30 00:05:49;;;;;;;0.00;0.00;;;;;;;;;;1717776;28;20240;-71
2022/01/30 00:06:42;;;;;;;0.00;0.00;;;;;;;;;;1719159;28;20643;-71
2022/01/30 00:07:33;;;;;;;0.00;0.00;;;;;;;;;;1719245;28;20200;-71
2022/01/30 00:08:25;;;;;;;0.00;0.00;;;;;;;;;;1719622;28;20201;-71
2022/01/30 00:09:19;;;;;;;0.00;0.00;;;;;;;;;;1718726;28;20210;-71
2022/01/30 00:10:15;;;;;;;0.00;0.00;;;;;;;;;;1722078;28;20529;-71
2022/01/30 00:11:12;;;;;;;0.00;0.00;;;;;;;;;;1719423;28;20237;-71
2022/01/30 00:12:05;;;;;;;0.00;0.00;;;;;;;;;;1721192;28;20289;-71
2022/01/30 00:12:59;;;;;;;0.00;0.00;;;;;;;;;;1718880;28;20209;-71
2022/01/30 00:13:53;;;;;;;0.00;0.00;;;;;;;;;;1718722;28;20196;-71
2022/01/30 00:14:44;;;;;;;0.00;0.00;;;;;;;;;;1719628;28;20205;-71
2022/01/30 00:15:41;;;;;;;0.00;0.00;;;;;;;;;;1717190;28;20235;-71
2022/01/30 00:16:36;;;;;;;0.00;0.00;;;;;;;;;;1719759;28;20892;-71
2022/01/30 00:17:35;;;;;;;0.00;0.00;;;;;;;;;;1719456;28;20644;-71
2022/01/30 00:18:43;;;;;;;0.00;0.00;;;;;;;;;;1719516;28;20465;-71
2022/01/30 00:19:40;;;;;;;0.00;0.00;;;;;;;;;;1725439;28;20193;-71
2022/01/30 00:20:34;;;;;;;0.00;0.00;;;;;;;;;;1717918;28;20715;-71
2022/01/30 00:21:35;;;;;;;0.00;0.00;;;;;;;;;;1719892;28;20525;-71
2022/01/30 00:22:39;;;;;;;0.00;0.00;;;;;;;;;;1719590;28;20229;-71
2022/01/30 00:23:34;;;;;;;0.00;0.00;;;;;;;;;;1719226;28;20284;-71
2022/01/30 00:24:34;;;;;;;0.00;0.00;;;;;;;;;;1719279;28;20209;-71
2022/01/30 00:25:34;;;;;;;0.00;0.00;;;;;;;;;;1716570;28;20537;-71
2022/01/30 00:26:29;;;;;;;0.00;0.00;;;;;;;;;;1713158;28;20267;-71
2022/01/30 00:27:28;;;;;;;0.00;0.00;;;;;;;;;;1718840;28;20212;-71
2022/01/30 00:28:22;;;;;;;0.00;0.00;;;;;;;;;;1719297;28;20209;-71
2022/01/30 00:29:16;;;;;;;0.00;0.00;;;;;;;;;;1719443;28;20212;-71
2022/01/30 00:30:09;;;;;;;0.00;0.00;;;;;;;;;;1718718;28;20228;-71
2022/01/30 00:31:02;;;;;;;0.00;0.00;;;;;;;;;;1718379;28;20603;-71
2022/01/30 00:31:53;;;;;;;0.00;0.00;;;;;;;;;;1719140;28;20216;-71
2022/01/30 00:32:46;;;;;;;0.00;0.00;;;;;;;;;;1719786;28;20576;-71
2022/01/30 00:33:37;;;;;;;0.00;0.00;;;;;;;;;;1719342;28;20240;-71
2022/01/30 00:34:29;;;;;;;0.00;0.00;;;;;;;;;;1719136;28;20674;-70
2022/01/30 00:35:20;;;;;;;0.00;0.00;;;;;;;;;;1717649;28;20208;-70
2022/01/30 00:36:12;;;;;;;0.00;0.00;;;;;;;;;;1719250;28;20307;-70
2022/01/30 00:37:04;;;;;;;0.00;0.00;;;;;;;;;;1718871;28;20213;-70
2022/01/30 00:37:56;;;;;;;0.00;0.00;;;;;;;;;;1719449;28;20216;-71
2022/01/30 00:38:47;;;;;;;0.00;0.00;;;;;;;;;;1718961;28;20267;-71
2022/01/30 00:39:39;;;;;;;0.00;0.00;;;;;;;;;;1719254;28;20197;-71
2022/01/30 00:40:31;;;;;;;0.00;0.00;;;;;;;;;;1717600;28;20240;-71
2022/01/30 00:41:23;;;;;;;0.00;0.00;;;;;;;;;;1726649;28;20189;-71
2022/01/30 00:42:14;;;;;;;0.00;0.00;;;;;;;;;;1719492;28;20563;-71
2022/01/30 00:43:07;;;;;;;0.00;0.00;;;;;;;;;;1719205;28;20676;-71
2022/01/30 00:43:58;;;;;;;0.00;0.00;;;;;;;;;;1720060;28;20212;-70
2022/01/30 00:44:51;;;;;;;0.00;0.00;;;;;;;;;;1725906;28;20200;-71
2022/01/30 00:45:43;;;;;;;0.00;0.00;;;;;;;;;;1719346;28;20240;-71
2022/01/30 00:46:35;;;;;;;0.00;0.00;;;;;;;;;;1725194;28;20204;-71
2022/01/30 00:47:26;;;;;;;0.00;0.00;;;;;;;;;;1722696;28;20773;-71
2022/01/30 00:48:19;;;;;;;0.00;0.00;;;;;;;;;;1722258;28;20209;-71
2022/01/30 00:49:10;;;;;;;0.00;0.00;;;;;;;;;;1718586;28;20204;-71
2022/01/30 00:50:01;;;;;;;0.00;0.00;;;;;;;;;;1718522;28;20731;-71
2022/01/30 00:50:53;;;;;;;0.00;0.00;;;;;;;;;;1720756;28;20267;-71
2022/01/30 00:51:44;;;;;;;0.00;0.00;;;;;;;;;;1723897;28;20227;-71
2022/01/30 00:52:37;;;;;;;0.00;0.00;;;;;;;;;;1723579;28;20633;-71
2022/01/30 00:53:28;;;;;;;0.00;0.00;;;;;;;;;;1723429;28;20271;-71
2022/01/30 00:54:20;;;;;;;0.00;0.00;;;;;;;;;;1723554;28;20303;-71
2022/01/30 00:55:14;;;;;;;0.00;0.00;;;;;;;;;;1720425;28;20657;-71
2022/01/30 00:56:07;;;;;;;0.00;0.00;;;;;;;;;;1718219;28;20239;-71
2022/01/30 00:56:59;;;;;;;0.00;0.00;;;;;;;;;;1719037;28;20600;-71
2022/01/30 00:57:51;;;;;;;0.00;0.00;;;;;;;;;;1719257;28;20380;-71
2022/01/30 00:58:43;;;;;;;0.10;0.10;;;;;;;;;;1719161;28;20264;-71
2022/01/30 00:59:34;;;;;;;0.00;0.00;;;;;;;;;;1719377;28;20635;-71
2022/01/30 01:00:28;;;;;;;0.00;0.00;;;;;;;;;;1715509;28;20205;-71
2022/01/30 01:01:19;;;;;;;0.00;0.00;;;;;;;;;;1712350;28;20210;-71
2022/01/30 01:02:12;;;;;;;0.00;0.00;;;;;;;;;;1717736;28;20320;-71
2022/01/30 01:03:04;;;;;;;0.00;0.00;;;;;;;;;;1719645;28;20208;-71
2022/01/30 01:03:55;;;;;;;0.00;0.00;;;;;;;;;;1718586;28;20663;-71
2022/01/30 01:04:48;;;;;;;0.00;0.00;;;;;;;;;;1719713;28;20221;-71
2022/01/30 01:05:40;;;;;;;0.00;0.00;;;;;;;;;;1716896;28;20387;-71
2022/01/30 01:06:31;;;;;;;0.00;0.00;;;;;;;;;;1719261;28;20239;-71
2022/01/30 01:07:24;;;;;;;0.00;0.00;;;;;;;;;;1719205;28;20193;-71
2022/01/30 01:08:20;;;;;;;0.00;0.00;;;;;;;;;;1718533;28;20217;-71
2022/01/30 01:09:12;;;;;;;0.00;0.00;;;;;;;;;;1720035;28;20251;-71
2022/01/30 01:10:08;;;;;;;0.00;0.00;;;;;;;;;;1723319;28;20212;-71
2022/01/30 01:11:14;;;;;;;0.00;0.00;;;;;;;;;;1722187;28;20580;-71
2022/01/30 01:12:34;;;;;;;0.00;0.00;;;;;;;;;;1717074;28;20241;-71
2022/01/30 01:23:51;;;;;;;0.10;0.10;;;;;;;;;;1718930;28;20204;-71
2022/01/30 01:24:42;;;;;;;0.00;0.00;;;;;;;;;;1719474;28;20205;-71
2022/01/30 01:25:34;;;;;;;0.00;0.00;;;;;;;;;;1717173;28;20255;-71
2022/01/30 01:26:26;;;;;;;0.00;0.00;;;;;;;;;;1718914;28;20217;-71
2022/01/30 01:27:18;;;;;;;0.03;0.03;;;;;;;;;;1718211;28;20209;-71
2022/01/30 01:28:09;;;;;;;0.00;0.00;;;;;;;;;;1719183;28;20636;-71
2022/01/30 01:29:01;;;;;;;0.00;0.00;;;;;;;;;;1718926;28;20228;-71
2022/01/30 01:29:52;;;;;;;0.00;0.00;;;;;;;;;;1719110;28;20201;-71
2022/01/30 01:30:46;;;;;;;0.00;0.00;;;;;;;;;;1716982;28;20232;-71
2022/01/30 01:31:37;;;;;;;0.00;0.00;;;;;;;;;;1719423;28;20213;-71
2022/01/30 01:32:29;;;;;;;0.00;0.00;;;;;;;;;;1718285;28;20205;-71
2022/01/30 01:33:23;;;;;;;0.00;0.00;;;;;;;;;;1718768;28;20314;-71
2022/01/30 01:34:30;;;;;;;0.00;0.00;;;;;;;;;;1718763;28;20601;-71
2022/01/30 01:35:21;;;;;;;0.00;0.00;;;;;;;;;;1717203;28;20212;-71
2022/01/30 01:36:13;;;;;;;0.00;0.00;;;;;;;;;;1719028;28;20228;-71
2022/01/30 01:37:09;;;;;;;0.00;0.00;;;;;;;;;;1718769;28;20216;-71
2022/01/30 01:38:03;;;;;;;0.00;0.00;;;;;;;;;;1712619;28;20673;-71
2022/01/30 01:38:55;;;;;;;0.00;0.00;;;;;;;;;;1717156;28;20209;-71
2022/01/30 01:39:47;;;;;;;0.00;0.00;;;;;;;;;;1718977;28;20213;-71
2022/01/30 01:40:39;;;;;;;0.00;0.00;;;;;;;;;;1719315;28;20244;-71
2022/01/30 01:41:33;;;;;;;0.00;0.00;;;;;;;;;;1725371;28;20331;-71
2022/01/30 01:42:27;;;;;;;0.00;0.00;;;;;;;;;;1718921;28;20599;-71
2022/01/30 01:43:20;;;;;;;0.00;0.00;;;;;;;;;;1719009;28;20287;-71
2022/01/30 01:44:14;;;;;;;0.00;0.00;;;;;;;;;;1718922;28;20390;-71
2022/01/30 01:45:07;;;;;;;0.00;0.00;;;;;;;;;;1717724;28;20529;-71
2022/01/30 01:46:01;;;;;;;0.00;0.00;;;;;;;;;;1717639;28;20294;-71
2022/01/30 01:46:53;;;;;;;0.00;0.00;;;;;;;;;;1718882;28;20201;-71
2022/01/30 01:47:44;;;;;;;0.00;0.00;;;;;;;;;;1719347;28;20766;-71
2022/01/30 01:48:36;;;;;;;0.00;0.00;;;;;;;;;;1718899;28;20714;-71
2022/01/30 01:49:30;;;;;;;0.13;0.13;;;;;;;;;;1724410;28;20540;-71
2022/01/30 01:50:38;;;;;;;0.00;0.00;;;;;;;;;;1718753;28;20206;-71
2022/01/30 01:51:31;;;;;;;0.00;0.00;;;;;;;;;;1711800;28;20226;-71
2022/01/30 01:52:26;;;;;;;0.00;0.00;;;;;;;;;;1718988;28;20271;-71
2022/01/30 01:53:17;;;;;;;0.00;0.00;;;;;;;;;;1718908;28;20668;-71
2022/01/30 01:54:09;;;;;;;0.00;0.00;;;;;;;;;;1718629;28;20538;-71
2022/01/30 01:55:01;;;;;;;0.00;0.00;;;;;;;;;;1718856;28;20208;-71
2022/01/30 01:55:53;;;;;;;0.00;0.00;;;;;;;;;;1716973;28;20221;-71
2022/01/30 01:56:44;;;;;;;0.00;0.00;;;;;;;;;;1718825;28;20209;-71
2022/01/30 01:57:37;;;;;;;0.00;0.00;;;;;;;;;;1718089;28;20260;-71
2022/01/30 01:58:29;;;;;;;0.00;0.00;;;;;;;;;;1719000;28;20241;-71
2022/01/30 01:59:21;;;;;;;0.00;0.00;;;;;;;;;;1719165;28;20550;-71
2022/01/30 02:00:15;;;;;;;0.00;0.00;;;;;;;;;;1717643;28;20213;-71
2022/01/30 02:01:09;;;;;;;0.00;0.00;;;;;;;;;;1710622;28;20332;-71
2022/01/30 02:02:02;;;;;;;0.00;0.00;;;;;;;;;;1712120;28;20213;-71
2022/01/30 02:02:54;;;;;;;0.00;0.00;;;;;;;;;;1712571;28;20228;-71
2022/01/30 02:03:46;;;;;;;0.00;0.00;;;;;;;;;;1710808;28;20205;-71
2022/01/30 02:04:40;;;;;;;0.08;0.08;;;;;;;;;;1712719;28;20510;-71
2022/01/30 02:05:32;;;;;;;0.00;0.00;;;;;;;;;;1710118;28;20238;-71
2022/01/30 02:06:27;;;;;;;0.00;0.00;;;;;;;;;;1711973;28;20301;-71
2022/01/30 02:07:49;;;;;;;0.00;0.00;;;;;;;;;;1710597;28;20210;-71
2022/01/30 02:08:45;;;;;;;0.00;0.00;;;;;;;;;;1710150;28;20285;-71
2022/01/30 02:09:37;;;;;;;0.00;0.00;;;;;;;;;;1712100;28;20221;-71
2022/01/30 02:10:35;;;;;;;0.00;0.00;;;;;;;;;;1709562;28;20324;-71
2022/01/30 02:11:32;;;;;;;0.00;0.00;;;;;;;;;;1712338;28;20573;-71
2022/01/30 02:12:31;;;;;;;0.03;0.03;;;;;;;;;;1712121;28;20528;-71
2022/01/30 02:14:43;;;;;;;0.00;0.00;;;;;;;;;;1705718;28;20203;-71
2022/01/30 02:23:55;;;;;;;0.00;0.00;;;;;;;;;;1713582;28;20609;-71
2022/01/30 02:24:04;;;;;;;0.00;0.00;;;;;;;;;;1718573;28;20209;-71
2022/01/30 02:25:03;;;;;;;0.00;0.00;;;;;;;;;;1718527;28;20610;-71
2022/01/30 02:25:59;;;;;;;0.10;0.10;;;;;;;;;;1717277;28;20236;-71
2022/01/30 02:26:50;;;;;;;0.00;0.00;;;;;;;;;;1718112;28;20201;-71
2022/01/30 02:27:42;;;;;;;0.00;0.00;;;;;;;;;;1718819;28;20211;-71
2022/01/30 02:28:35;;;;;;;0.00;0.00;;;;;;;;;;1717976;28;20201;-71
2022/01/30 02:29:26;;;;;;;0.00;0.00;;;;;;;;;;1718429;28;20220;-71
2022/01/30 02:30:20;;;;;;;0.00;0.00;;;;;;;;;;1717157;28;20208;-71
2022/01/30 02:31:14;;;;;;;0.00;0.00;;;;;;;;;;1718258;28;20363;-71
2022/01/30 02:32:07;;;;;;;0.00;0.00;;;;;;;;;;1718827;28;20887;-71
2022/01/30 02:32:58;;;;;;;0.00;0.00;;;;;;;;;;1718802;28;20213;-71
2022/01/30 02:33:51;;;;;;;0.00;0.00;;;;;;;;;;1718234;28;20509;-71
2022/01/30 02:34:43;;;;;;;0.00;0.00;;;;;;;;;;1718516;28;20204;-71
2022/01/30 02:35:35;;;;;;;0.00;0.00;;;;;;;;;;1716151;28;20248;-71
2022/01/30 02:36:26;;;;;;;0.10;0.10;;;;;;;;;;1719156;28;20231;-71
2022/01/30 02:37:18;;;;;;;0.00;0.00;;;;;;;;;;1718606;28;20296;-71
2022/01/30 02:38:11;;;;;;;0.00;0.00;;;;;;;;;;1718828;28;20233;-71
2022/01/30 02:39:03;;;;;;;0.00;0.00;;;;;;;;;;1718612;28;20224;-71
2022/01/30 02:39:54;;;;;;;0.00;0.00;;;;;;;;;;1718522;28;20205;-71
2022/01/30 02:40:48;;;;;;;0.00;0.00;;;;;;;;;;1718992;28;20236;-71
2022/01/30 02:41:40;;;;;;;0.00;0.00;;;;;;;;;;1723588;28;20200;-71
2022/01/30 02:42:33;;;;;;;0.05;0.05;;;;;;;;;;1719077;28;20205;-71
2022/01/30 02:43:29;;;;;;;0.00;0.00;;;;;;;;;;1718648;28;20648;-71
2022/01/30 02:44:25;;;;;;;0.00;0.00;;;;;;;;;;1718753;28;20605;-71
2022/01/30 02:45:18;;;;;;;0.00;0.00;;;;;;;;;;1717202;28;20232;-70
2022/01/30 02:46:22;;;;;;;0.10;0.10;;;;;;;;;;1718335;28;20477;-70
2022/01/30 02:47:23;;;;;;;0.00;0.00;;;;;;;;;;1717971;28;20247;-70
2022/01/30 02:48:19;;;;;;;0.00;0.00;;;;;;;;;;1719071;28;20189;-70
2022/01/30 02:49:26;;;;;;;0.40;0.40;;;;;;;;;;1718576;28;20221;-70
2022/01/30 02:50:31;;;;;;;0.00;0.00;;;;;;;;;;1717257;28;20259;-70
2022/01/30 02:51:23;;;;;;;0.00;0.00;;;;;;;;;;1712045;28;20229;-71
2022/01/30 02:52:16;;;;;;;0.00;0.00;;;;;;;;;;1718085;28;20212;-71
2022/01/30 02:53:09;;;;;;;0.00;0.00;;;;;;;;;;1718963;28;20208;-71
2022/01/30 02:54:05;;;;;;;0.00;0.00;;;;;;;;;;1717775;28;20213;-71
2022/01/30 02:54:56;;;;;;;0.10;0.10;;;;;;;;;;1718858;28;20546;-71
2022/01/30 02:55:48;;;;;;;0.00;0.00;;;;;;;;;;1719496;28;20242;-71
2022/01/30 02:56:40;;;;;;;0.05;0.05;;;;;;;;;;1723965;28;20617;-71
2022/01/30 02:57:32;;;;;;;0.00;0.00;;;;;;;;;;1721907;28;20680;-71
2022/01/30 02:58:24;;;;;;;0.00;0.00;;;;;;;;;;1723046;28;20564;-71
2022/01/30 02:59:16;;;;;;;0.00;0.00;;;;;;;;;;1722606;28;20262;-71
2022/01/30 03:00:11;;;;;;;0.00;0.00;;;;;;;;;;1720451;28;20224;-71
2022/01/30 03:01:03;;;;;;;0.00;0.00;;;;;;;;;;1715902;28;20327;-71
2022/01/30 03:01:55;;;;;;;0.00;0.00;;;;;;;;;;1718954;28;20692;-71
2022/01/30 03:02:47;;;;;;;0.00;0.00;;;;;;;;;;1719061;28;20301;-71
2022/01/30 03:03:38;;;;;;;0.00;0.00;;;;;;;;;;1718704;28;20548;-71
2022/01/30 03:04:30;;;;;;;0.00;0.00;;;;;;;;;;1718523;28;20288;-71
2022/01/30 03:05:21;;;;;;;0.10;0.10;;;;;;;;;;1716693;28;20213;-71
2022/01/30 03:06:14;;;;;;;0.00;0.00;;;;;;;;;;1717856;28;20707;-71
2022/01/30 03:07:05;;;;;;;0.00;0.00;;;;;;;;;;1718527;28;20530;-71
2022/01/30 03:07:57;;;;;;;0.00;0.00;;;;;;;;;;1719274;28;20713;-71
2022/01/30 03:08:48;;;;;;;0.00;0.00;;;;;;;;;;1718649;28;20208;-71
2022/01/30 03:09:42;;;;;;;0.00;0.00;;;;;;;;;;1723753;28;20279;-71
2022/01/30 03:10:34;;;;;;;0.00;0.00;;;;;;;;;;1716663;28;20237;-71
2022/01/30 03:11:26;;;;;;;0.00;0.00;;;;;;;;;;1719397;28;20664;-71
2022/01/30 03:12:18;;;;;;;0.08;0.08;;;;;;;;;;1717890;28;20212;-71
2022/01/30 03:13:10;;;;;;;0.00;0.00;;;;;;;;;;1718873;28;20213;-71
2022/01/30 03:14:01;;;;;;;0.00;0.00;;;;;;;;;;1718579;28;20208;-71
2022/01/30 03:14:53;;;;;;;0.00;0.00;;;;;;;;;;1718290;28;20215;-71
2022/01/30 03:15:44;;;;;;;0.00;0.00;;;;;;;;;;1716824;28;20251;-71
2022/01/30 03:16:37;;;;;;;0.00;0.00;;;;;;;;;;1718620;28;20197;-71
2022/01/30 03:17:28;;;;;;;0.00;0.00;;;;;;;;;;1719121;28;20209;-71
2022/01/30 03:18:20;;;;;;;0.00;0.00;;;;;;;;;;1718055;28;20205;-71
2022/01/30 03:19:11;;;;;;;0.00;0.00;;;;;;;;;;1721806;28;20647;-71
2022/01/30 03:20:04;;;;;;;0.00;0.00;;;;;;;;;;1723289;28;20620;-71
2022/01/30 03:20:56;;;;;;;0.00;0.00;;;;;;;;;;1716332;28;20244;-71
2022/01/30 03:21:48;;;;;;;0.00;0.00;;;;;;;;;;1718387;28;20201;-71
2022/01/30 03:22:40;;;;;;;0.00;0.00;;;;;;;;;;1719166;28;20208;-71
2022/01/30 03:23:36;;;;;;;0.00;0.00;;;;;;;;;;1718704;28;20300;-71
2022/01/30 03:24:33;;;;;;;0.00;0.00;;;;;;;;;;1716882;28;20202;-71
2022/01/30 03:25:27;;;;;;;0.00;0.00;;;;;;;;;;1716349;28;20209;-71
2022/01/30 03:26:18;;;;;;;0.00;0.00;;;;;;;;;;1719421;28;20263;-71
2022/01/30 03:27:12;;;;;;;0.00;0.00;;;;;;;;;;1717273;28;20216;-71
2022/01/30 03:28:04;;;;;;;0.00;0.00;;;;;;;;;;1719459;28;20271;-71
2022/01/30 03:29:04;;;;;;;0.10;0.10;;;;;;;;;;1718760;28;20967;-71
2022/01/30 03:30:02;;;;;;;0.00;0.00;;;;;;;;;;1718837;28;20217;-71
2022/01/30 03:30:58;;;;;;;0.00;0.00;;;;;;;;;;1716579;28;20294;-71
2022/01/30 03:31:50;;;;;;;0.00;0.00;;;;;;;;;;1718431;28;20205;-71
2022/01/30 03:32:42;;;;;;;0.00;0.00;;;;;;;;;;1719053;28;20714;-71
2022/01/30 03:33:33;;;;;;;0.00;0.00;;;;;;;;;;1718428;28;20283;-71
2022/01/30 03:34:25;;;;;;;0.00;0.00;;;;;;;;;;1718863;28;20683;-71
2022/01/30 03:35:17;;;;;;;0.00;0.00;;;;;;;;;;1717780;28;20209;-71
2022/01/30 03:36:09;;;;;;;0.00;0.00;;;;;;;;;;1718247;28;20639;-71
2022/01/30 03:37:00;;;;;;;0.00;0.00;;;;;;;;;;1717622;28;20212;-71
2022/01/30 03:37:52;;;;;;;0.00;0.00;;;;;;;;;;1718056;28;20284;-71
2022/01/30 03:38:43;;;;;;;0.00;0.00;;;;;;;;;;1718435;28;20671;-71
2022/01/30 03:39:35;;;;;;;0.00;0.00;;;;;;;;;;1718832;28;20211;-71
2022/01/30 03:40:28;;;;;;;0.00;0.00;;;;;;;;;;1716431;28;20213;-71
2022/01/30 03:41:20;;;;;;;0.00;0.00;;;;;;;;;;1712655;28;20198;-71
2022/01/30 03:42:12;;;;;;;0.00;0.00;;;;;;;;;;1716500;28;20281;-71
2022/01/30 03:43:04;;;;;;;0.00;0.00;;;;;;;;;;1718660;28;20316;-71
2022/01/30 03:43:55;;;;;;;0.00;0.00;;;;;;;;;;1717416;28;20317;-71
2022/01/30 03:44:47;;;;;;;0.00;0.00;;;;;;;;;;1719308;28;20545;-71
2022/01/30 03:45:39;;;;;;;0.00;0.00;;;;;;;;;;1716480;28;20248;-71
2022/01/30 03:46:31;;;;;;;0.00;0.00;;;;;;;;;;1718921;28;20263;-71
2022/01/30 03:47:24;;;;;;;0.00;0.00;;;;;;;;;;1718839;28;20639;-71
2022/01/30 03:48:17;;;;;;;0.00;0.00;;;;;;;;;;1718607;28;20294;-71
2022/01/30 03:49:08;;;;;;;0.00;0.00;;;;;;;;;;1718433;28;20213;-71
2022/01/30 03:50:00;;;;;;;0.00;0.00;;;;;;;;;;1717660;28;20315;-71
2022/01/30 03:50:51;;;;;;;0.20;0.20;;;;;;;;;;1720118;28;20694;-70
2022/01/30 03:51:43;;;;;;;0.00;0.00;;;;;;;;;;1723625;28;20206;-70
2022/01/30 03:52:35;;;;;;;0.10;0.10;;;;;;;;;;1722561;28;20204;-70
2022/01/30 03:53:27;;;;;;;0.00;0.00;;;;;;;;;;1722991;28;20200;-70
2022/01/30 03:54:18;;;;;;;0.10;0.10;;;;;;;;;;1722486;28;20212;-70
2022/01/30 03:55:13;;;;;;;0.00;0.00;;;;;;;;;;1721440;28;20216;-71
2022/01/30 03:56:05;;;;;;;0.10;0.10;;;;;;;;;;1716918;28;20275;-71
2022/01/30 03:56:57;;;;;;;0.00;0.00;;;;;;;;;;1718515;28;20256;-71
2022/01/30 03:57:49;;;;;;;0.00;0.00;;;;;;;;;;1718901;28;20251;-71
2022/01/30 03:58:41;;;;;;;0.00;0.00;;;;;;;;;;1718374;28;20247;-71
2022/01/30 03:59:32;;;;;;;0.00;0.00;;;;;;;;;;1718646;28;20936;-71
2022/01/30 04:00:24;;;;;;;0.00;0.00;;;;;;;;;;1715222;28;20220;-71
2022/01/30 04:01:15;;;;;;;0.00;0.00;;;;;;;;;;1718851;28;20201;-71
2022/01/30 04:02:08;;;;;;;0.00;0.00;;;;;;;;;;1717776;28;20215;-71
2022/01/30 04:02:59;;;;;;;0.00;0.00;;;;;;;;;;1718655;28;20556;-71
2022/01/30 04:03:51;;;;;;;0.00;0.00;;;;;;;;;;1718391;28;20659;-71
2022/01/30 04:04:42;;;;;;;0.10;0.10;;;;;;;;;;1718672;28;20657;-71
2022/01/30 04:05:34;;;;;;;0.00;0.00;;;;;;;;;;1716765;28;20710;-71
2022/01/30 04:06:26;;;;;;;0.00;0.00;;;;;;;;;;1719264;28;20219;-71
2022/01/30 04:07:19;;;;;;;0.10;0.10;;;;;;;;;;1718641;28;20648;-71
2022/01/30 04:08:10;;;;;;;0.00;0.00;;;;;;;;;;1718904;28;20209;-71
2022/01/30 04:09:04;;;;;;;0.00;0.00;;;;;;;;;;1717940;28;20240;-71
2022/01/30 04:09:55;;;;;;;0.00;0.00;;;;;;;;;;1712898;28;20632;-71
2022/01/30 04:10:47;;;;;;;0.10;0.10;;;;;;;;;;1716542;28;20236;-71
2022/01/30 04:11:40;;;;;;;0.00;0.00;;;;;;;;;;1718818;28;20205;-71
2022/01/30 04:12:33;;;;;;;0.00;0.00;;;;;;;;;;1718764;28;20212;-71
2022/01/30 04:13:24;;;;;;;0.00;0.00;;;;;;;;;;1718530;28;20303;-71
2022/01/30 04:14:16;;;;;;;0.00;0.00;;;;;;;;;;1718477;28;20205;-71
2022/01/30 04:15:08;;;;;;;0.00;0.00;;;;;;;;;;1716862;28;20213;-71
2022/01/30 04:16:01;;;;;;;0.00;0.00;;;;;;;;;;1717937;28;20279;-71
2022/01/30 04:16:52;;;;;;;0.10;0.10;;;;;;;;;;1718624;28;20205;-71
2022/01/30 04:17:45;;;;;;;0.00;0.00;;;;;;;;;;1718946;28;20401;-71
2022/01/30 04:18:36;;;;;;;0.00;0.00;;;;;;;;;;1718509;28;20641;-71
2022/01/30 04:19:28;;;;;;;0.00;0.00;;;;;;;;;;1724086;28;20255;-71
2022/01/30 04:20:20;;;;;;;0.10;0.10;;;;;;;;;;1719219;28;21357;-71
2022/01/30 04:21:12;;;;;;;0.00;0.00;;;;;;;;;;1723363;28;20246;-71
2022/01/30 04:22:03;;;;;;;0.00;0.00;;;;;;;;;;1720434;28;20219;-71
2022/01/30 04:22:56;;;;;;;0.00;0.00;;;;;;;;;;1725543;28;20204;-71
2022/01/30 04:23:47;;;;;;;0.00;0.00;;;;;;;;;;1722979;28;20548;-71
2022/01/30 04:24:39;;;;;;;0.00;0.00;;;;;;;;;;1719308;28;20284;-71
2022/01/30 04:25:31;;;;;;;0.00;0.00;;;;;;;;;;1716727;28;20240;-71
2022/01/30 04:26:23;;;;;;;0.00;0.00;;;;;;;;;;1718766;28;20201;-71
2022/01/30 04:27:15;;;;;;;0.00;0.00;;;;;;;;;;1716700;28;20240;-71
2022/01/30 04:28:08;;;;;;;0.00;0.00;;;;;;;;;;1718843;28;20256;-71
2022/01/30 04:28:59;;;;;;;0.00;0.00;;;;;;;;;;1718518;28;20220;-71
2022/01/30 04:29:52;;;;;;;0.00;0.00;;;;;;;;;;1718458;28;20197;-71
2022/01/30 04:30:43;;;;;;;0.00;0.00;;;;;;;;;;1717010;28;20236;-71
2022/01/30 04:31:36;;;;;;;0.10;0.10;;;;;;;;;;1718496;28;20205;-71
2022/01/30 04:32:29;;;;;;;0.00;0.00;;;;;;;;;;1718600;28;20644;-71
2022/01/30 04:33:21;;;;;;;0.00;0.00;;;;;;;;;;1718102;28;20567;-71
2022/01/30 04:34:13;;;;;;;0.00;0.00;;;;;;;;;;1716938;28;20205;-71
2022/01/30 04:35:11;;;;;;;0.00;0.00;;;;;;;;;;1718619;28;20209;-71
2022/01/30 04:36:04;;;;;;;0.00;0.00;;;;;;;;;;1716736;28;20580;-71
2022/01/30 04:37:01;;;;;;;0.00;0.00;;;;;;;;;;1718468;28;20595;-71
2022/01/30 04:38:08;;;;;;;0.00;0.00;;;;;;;;;;1718921;28;20207;-71
2022/01/30 04:39:09;;;;;;;0.00;0.00;;;;;;;;;;1718593;28;20222;-71
2022/01/30 04:40:39;;;;;;;0.00;0.00;;;;;;;;;;1717658;28;20681;-71
2022/01/30 04:41:58;;;;;;;0.00;0.00;;;;;;;;;;1710754;28;20329;-71
2022/01/30 04:52:50;;;;;;;0.00;0.00;;;;;;;;;;1701962;29;20242;-71
2022/01/30 04:54:12;;;;;;;0.10;0.10;;;;;;;;;;1701875;29;20197;-71
2022/01/30 04:58:32;;;;;;;0.10;0.10;;;;;;;;;;1701597;28;20382;-71
2022/01/30 04:59:44;;;;;;;0.00;0.00;;;;;;;;;;1712841;28;20233;-71
2022/01/30 05:01:59;;;;;;;0.00;0.00;;;;;;;;;;1719482;28;20213;-71
2022/01/30 05:02:58;;;;;;;0.00;0.00;;;;;;;;;;1719978;28;20255;-71
2022/01/30 05:04:01;;;;;;;0.10;0.10;;;;;;;;;;1719247;28;20205;-71
2022/01/30 05:05:07;;;;;;;0.00;0.00;;;;;;;;;;1719276;28;20204;-71
2022/01/30 05:06:04;;;;;;;0.00;0.00;;;;;;;;;;1713713;28;20225;-71
2022/01/30 05:07:27;;;;;;;0.00;0.00;;;;;;;;;;1716476;28;20189;-71
2022/01/30 05:08:08;;;;;;;0.00;0.00;;;;;;;;;;1720226;28;20604;-71
2022/01/30 05:09:00;;;;;;;0.00;0.00;;;;;;;;;;1719524;28;20541;-71
2022/01/30 05:09:52;;;;;;;0.00;0.00;;;;;;;;;;1719191;28;20204;-71
2022/01/30 05:10:43;;;;;;;0.00;0.00;;;;;;;;;;1717762;28;20256;-71
2022/01/30 05:11:35;;;;;;;0.00;0.00;;;;;;;;;;1719429;28;20292;-71
2022/01/30 05:12:33;;;;;;;0.00;0.00;;;;;;;;;;1719803;28;20217;-71
2022/01/30 05:13:30;;;;;;;0.00;0.00;;;;;;;;;;1719505;28;20189;-71
2022/01/30 05:14:24;;;;;;;0.00;0.00;;;;;;;;;;1719793;28;20204;-71
2022/01/30 05:15:18;;;;;;;0.00;0.00;;;;;;;;;;1717823;28;20209;-71
2022/01/30 05:16:10;;;;;;;0.00;0.00;;;;;;;;;;1724768;28;20264;-71
2022/01/30 05:17:03;;;;;;;0.00;0.00;;;;;;;;;;1722195;28;20208;-71
2022/01/30 05:17:54;;;;;;;0.00;0.00;;;;;;;;;;1723709;28;20200;-71
2022/01/30 05:18:47;;;;;;;0.00;0.00;;;;;;;;;;1720658;28;20342;-71
2022/01/30 05:19:38;;;;;;;0.00;0.00;;;;;;;;;;1726240;28;20254;-71
2022/01/30 05:20:31;;;;;;;0.03;0.03;;;;;;;;;;1717953;28;20324;-71
2022/01/30 05:21:23;;;;;;;0.00;0.00;;;;;;;;;;1726815;28;20208;-71
2022/01/30 05:22:15;;;;;;;0.00;0.00;;;;;;;;;;1721885;28;20410;-71
2022/01/30 05:23:07;;;;;;;0.00;0.00;;;;;;;;;;1726150;28;20208;-71
2022/01/30 05:23:59;;;;;;;0.08;0.08;;;;;;;;;;1719944;28;20205;-71
2022/01/30 05:24:51;;;;;;;0.00;0.00;;;;;;;;;;1719932;28;20208;-71
2022/01/30 05:25:43;;;;;;;0.00;0.00;;;;;;;;;;1717837;28;20240;-71
2022/01/30 05:26:38;;;;;;;0.00;0.00;;;;;;;;;;1719813;28;20197;-71
2022/01/30 05:27:29;;;;;;;0.00;0.00;;;;;;;;;;1718722;28;20205;-71
2022/01/30 05:28:23;;;;;;;0.00;0.00;;;;;;;;;;1719426;28;20587;-71
2022/01/30 05:29:16;;;;;;;0.03;0.03;;;;;;;;;;1719149;28;20651;-71
2022/01/30 05:30:08;;;;;;;0.00;0.00;;;;;;;;;;1718447;28;20213;-71
2022/01/30 05:31:00;;;;;;;0.00;0.00;;;;;;;;;;1721524;28;20567;-71
2022/01/30 05:31:52;;;;;;;0.00;0.00;;;;;;;;;;1724044;28;20510;-72
2022/01/30 05:32:44;;;;;;;0.00;0.00;;;;;;;;;;1724441;28;20544;-71
2022/01/30 05:33:36;;;;;;;0.00;0.00;;;;;;;;;;1722541;28;20652;-71
2022/01/30 05:34:28;;;;;;;0.00;0.00;;;;;;;;;;1719214;28;20205;-71
2022/01/30 05:35:20;;;;;;;0.00;0.00;;;;;;;;;;1718984;28;20205;-71
2022/01/30 05:36:12;;;;;;;0.00;0.00;;;;;;;;;;1724223;28;20282;-71
2022/01/30 05:37:04;;;;;;;0.00;0.00;;;;;;;;;;1721986;28;20208;-71
2022/01/30 05:37:56;;;;;;;0.00;0.00;;;;;;;;;;1719870;28;20205;-71
2022/01/30 05:38:48;;;;;;;0.00;0.00;;;;;;;;;;1718938;28;20225;-71
2022/01/30 05:39:40;;;;;;;0.00;0.00;;;;;;;;;;1719341;28;20691;-71
2022/01/30 05:40:34;;;;;;;0.05;0.05;;;;;;;;;;1718764;28;20232;-71
2022/01/30 05:41:26;;;;;;;0.00;0.00;;;;;;;;;;1726521;28;20212;-71
2022/01/30 05:42:19;;;;;;;0.00;0.00;;;;;;;;;;1718393;28;20252;-71
2022/01/30 05:43:11;;;;;;;0.00;0.00;;;;;;;;;;1719347;28;20223;-71
2022/01/30 05:44:10;;;;;;;0.00;0.00;;;;;;;;;;1722061;28;20216;-71
2022/01/30 05:45:12;;;;;;;0.00;0.00;;;;;;;;;;1724246;28;20212;-71
2022/01/30 05:46:12;;;;;;;0.00;0.00;;;;;;;;;;1722352;28;20236;-71
2022/01/30 05:47:04;;;;;;;0.00;0.00;;;;;;;;;;1722140;28;20204;-71
2022/01/30 05:47:59;;;;;;;0.10;0.10;;;;;;;;;;1725374;28;20440;-71
2022/01/30 05:48:51;;;;;;;0.03;0.03;;;;;;;;;;1721212;28;20201;-71
2022/01/30 05:49:44;;;;;;;0.10;0.10;;;;;;;;;;1726130;28;20658;-71
2022/01/30 05:50:35;;;;;;;0.00;0.00;;;;;;;;;;1717266;28;20607;-71
2022/01/30 05:51:27;;;;;;;0.00;0.00;;;;;;;;;;1719554;28;20545;-71
2022/01/30 05:52:21;;;;;;;0.00;0.00;;;;;;;;;;1719018;28;20208;-71
2022/01/30 05:53:14;;;;;;;0.00;0.00;;;;;;;;;;1718703;28;20205;-71
2022/01/30 05:54:05;;;;;;;0.00;0.00;;;;;;;;;;1718172;28;20213;-71
2022/01/30 05:54:57;;;;;;;0.00;0.00;;;;;;;;;;1718646;28;20707;-71
2022/01/30 05:55:50;;;;;;;0.00;0.00;;;;;;;;;;1717815;28;20241;-71
2022/01/30 05:56:42;;;;;;;0.00;0.00;;;;;;;;;;1719232;28;20235;-71